sensor_id;sensor_type;location;lat;lon;timestamp;pressure;altitude;pressure_sealevel;temperature;humidity
28428;BME280;15662;49.128;8.520;2023-07-29T00:02:11;99907.56;;;23.45;60.95
28428;BME280;15662;49.128;8.520;2023-07-29T00:04:40;99914.94;;;23.43;60.93
28428;BME280;15662;49.128;8.520;2023-07-29T00:07:09;99905.09;;;23.42;60.90
28428;BME280;15662;49.128;8.520;2023-07-29T00:09:38;99898.69;;;23.43;60.57
28428;BME280;15662;49.128;8.520;2023-07-29T00:12:07;99888.72;;;23.43;60.83
28428;BME280;15662;49.128;8.520;2023-07-29T00:14:35;99906.88;;;23.53;60.51
28428;BME280;15662;49.128;8.520;2023-07-29T00:17:03;99905.75;;;23.55;60.54
28428;BME280;15662;49.128;8.520;2023-07-29T00:19:33;99907.63;;;23.55;60.78
28428;BME280;15662;49.128;8.520;2023-07-29T00:22:01;99891.63;;;23.52;60.77
28428;BME280;15662;49.128;8.520;2023-07-29T00:24:30;99895.91;;;23.54;60.44
28428;BME280;15662;49.128;8.520;2023-07-29T00:26:59;99897.50;;;23.57;60.55
28428;BME280;15662;49.128;8.520;2023-07-29T00:29:28;99892.34;;;23.54;60.75
28428;BME280;15662;49.128;8.520;2023-07-29T00:31:57;99890.63;;;23.53;60.59
28428;BME280;15662;49.128;8.520;2023-07-29T00:34:25;99891.09;;;23.58;60.55
28428;BME280;15662;49.128;8.520;2023-07-29T00:36:56;99892.09;;;23.57;60.98
28428;BME280;15662;49.128;8.520;2023-07-29T00:39:26;99890.25;;;23.57;60.64
28428;BME280;15662;49.128;8.520;2023-07-29T00:41:56;99887.38;;;23.59;60.60
28428;BME280;15662;49.128;8.520;2023-07-29T00:44:25;99878.16;;;23.61;60.83
28428;BME280;15662;49.128;8.520;2023-07-29T00:46:54;99873.00;;;23.58;60.89
28428;BME280;15662;49.128;8.520;2023-07-29T00:49:23;99879.41;;;23.57;60.79
28428;BME280;15662;49.128;8.520;2023-07-29T00:51:51;99880.56;;;23.55;60.69
28428;BME280;15662;49.128;8.520;2023-07-29T00:54:20;99879.69;;;23.54;60.73
28428;BME280;15662;49.128;8.520;2023-07-29T00:56:49;99854.16;;;23.47;60.77
28428;BME280;15662;49.128;8.520;2023-07-29T00:59:18;99880.28;;;23.58;60.97
28428;BME280;15662;49.128;8.520;2023-07-29T01:01:48;99852.47;;;23.46;60.68
28428;BME280;15662;49.128;8.520;2023-07-29T01:04:18;99873.31;;;23.55;60.67
28428;BME280;15662;49.128;8.520;2023-07-29T01:15:21;99855.06;;;23.57;60.83
28428;BME280;15662;49.128;8.520;2023-07-29T01:17:59;99847.09;;;23.56;60.61
28428;BME280;15662;49.128;8.520;2023-07-29T01:20:34;99858.38;;;23.61;60.78
28428;BME280;15662;49.128;8.520;2023-07-29T01:23:04;99847.09;;;23.56;60.57
28428;BME280;15662;49.128;8.520;2023-07-29T01:25:32;99846.81;;;23.59;60.53
28428;BME280;15662;49.128;8.520;2023-07-29T01:28:00;99846.25;;;23.55;60.80
28428;BME280;15662;49.128;8.520;2023-07-29T01:30:40;99848.81;;;23.57;60.38
28428;BME280;15662;49.128;8.520;2023-07-29T01:33:16;99848.22;;;23.53;60.70
28428;BME280;15662;49.128;8.520;2023-07-29T01:35:58;99852.78;;;23.53;60.45
28428;BME280;15662;49.128;8.520;2023-07-29T01:38:39;99845.91;;;23.49;60.51
28428;BME280;15662;49.128;8.520;2023-07-29T01:41:09;99837.50;;;23.42;60.45
28428;BME280;15662;49.128;8.520;2023-07-29T01:43:38;99848.44;;;23.40;60.57
28428;BME280;15662;49.128;8.520;2023-07-29T01:46:15;99842.19;;;23.40;60.44
28428;BME280;15662;49.128;8.520;2023-07-29T01:48:43;99836.28;;;23.35;60.44
28428;BME280;15662;49.128;8.520;2023-07-29T01:51:14;99838.28;;;23.33;60.21
28428;BME280;15662;49.128;8.520;2023-07-29T01:53:42;99833.03;;;23.31;60.33
28428;BME280;15662;49.128;8.520;2023-07-29T01:56:10;99828.63;;;23.30;60.50
28428;BME280;15662;49.128;8.520;2023-07-29T01:58:41;99825.56;;;23.24;60.44
28428;BME280;15662;49.128;8.520;2023-07-29T02:01:09;99845.25;;;23.26;60.43
28428;BME280;15662;49.128;8.520;2023-07-29T02:03:37;99843.63;;;23.23;60.34
28428;BME280;15662;49.128;8.520;2023-07-29T02:06:05;99841.19;;;23.20;60.68
28428;BME280;15662;49.128;8.520;2023-07-29T02:08:33;99836.66;;;23.21;60.86
28428;BME280;15662;49.128;8.520;2023-07-29T02:11:01;99844.88;;;23.19;60.84
28428;BME280;15662;49.128;8.520;2023-07-29T02:13:29;99829.66;;;23.18;60.91
28428;BME280;15662;49.128;8.520;2023-07-29T02:15:57;99841.34;;;23.18;60.92
28428;BME280;15662;49.128;8.520;2023-07-29T02:18:24;99845.88;;;23.18;60.92
28428;BME280;15662;49.128;8.520;2023-07-29T02:20:52;99841.03;;;23.12;61.02
28428;BME280;15662;49.128;8.520;2023-07-29T02:23:20;99841.41;;;23.07;61.37
28428;BME280;15662;49.128;8.520;2023-07-29T02:25:48;99846.28;;;23.13;61.29
28428;BME280;15662;49.128;8.520;2023-07-29T02:28:16;99848.38;;;23.10;61.42
28428;BME280;15662;49.128;8.520;2023-07-29T02:30:43;99849.00;;;23.13;61.18
28428;BME280;15662;49.128;8.520;2023-07-29T02:33:13;99856.25;;;23.13;61.33
28428;BME280;15662;49.128;8.520;2023-07-29T02:35:41;99856.25;;;23.13;61.23
28428;BME280;15662;49.128;8.520;2023-07-29T02:38:09;99858.41;;;23.19;61.34
28428;BME280;15662;49.128;8.520;2023-07-29T02:40:38;99848.59;;;23.18;61.24
28428;BME280;15662;49.128;8.520;2023-07-29T02:43:05;99858.31;;;23.21;61.39
28428;BME280;15662;49.128;8.520;2023-07-29T02:45:33;99855.19;;;23.25;61.50
28428;BME280;15662;49.128;8.520;2023-07-29T02:48:01;99838.84;;;23.27;61.43
28428;BME280;15662;49.128;8.520;2023-07-29T02:50:29;99831.44;;;23.29;61.54
28428;BME280;15662;49.128;8.520;2023-07-29T02:52:57;99837.97;;;23.26;61.48
28428;BME280;15662;49.128;8.520;2023-07-29T02:55:25;99828.28;;;23.24;61.49
28428;BME280;15662;49.128;8.520;2023-07-29T02:57:54;99834.53;;;23.24;61.61
28428;BME280;15662;49.128;8.520;2023-07-29T03:00:21;99829.13;;;23.24;61.50
28428;BME280;15662;49.128;8.520;2023-07-29T03:02:50;99829.72;;;23.28;61.58
28428;BME280;15662;49.128;8.520;2023-07-29T03:05:18;99826.03;;;23.29;61.69
28428;BME280;15662;49.128;8.520;2023-07-29T03:07:46;99810.09;;;23.26;61.64
28428;BME280;15662;49.128;8.520;2023-07-29T03:10:14;99808.25;;;23.26;61.39
28428;BME280;15662;49.128;8.520;2023-07-29T03:12:42;99809.94;;;23.27;61.75
28428;BME280;15662;49.128;8.520;2023-07-29T03:15:11;99813.75;;;23.25;61.59
28428;BME280;15662;49.128;8.520;2023-07-29T03:17:39;99802.94;;;23.25;61.72
28428;BME280;15662;49.128;8.520;2023-07-29T03:20:07;99785.75;;;23.26;61.68
28428;BME280;15662;49.128;8.520;2023-07-29T03:22:35;99791.41;;;23.23;61.64
28428;BME280;15662;49.128;8.520;2023-07-29T03:25:04;99775.19;;;23.23;61.55
28428;BME280;15662;49.128;8.520;2023-07-29T03:27:33;99762.22;;;23.16;61.74
28428;BME280;15662;49.128;8.520;2023-07-29T03:30:01;99767.88;;;23.13;61.55
28428;BME280;15662;49.128;8.520;2023-07-29T03:32:29;99772.84;;;23.08;61.67
28428;BME280;15662;49.128;8.520;2023-07-29T03:34:57;99790.66;;;23.11;61.64
28428;BME280;15662;49.128;8.520;2023-07-29T03:37:25;99786.22;;;23.10;61.88
28428;BME280;15662;49.128;8.520;2023-07-29T03:39:52;99776.00;;;23.13;61.71
28428;BME280;15662;49.128;8.520;2023-07-29T03:42:20;99783.72;;;23.18;61.84
28428;BME280;15662;49.128;8.520;2023-07-29T03:44:48;99768.88;;;23.12;61.76
28428;BME280;15662;49.128;8.520;2023-07-29T03:47:16;99775.59;;;23.18;61.93
28428;BME280;15662;49.128;8.520;2023-07-29T03:49:44;99779.31;;;23.17;61.59
28428;BME280;15662;49.128;8.520;2023-07-29T03:52:12;99772.63;;;23.21;61.67
28428;BME280;15662;49.128;8.520;2023-07-29T03:54:40;99773.16;;;23.15;61.53
28428;BME280;15662;49.128;8.520;2023-07-29T03:57:08;99767.50;;;23.18;61.84
28428;BME280;15662;49.128;8.520;2023-07-29T03:59:36;99767.22;;;23.21;61.76
28428;BME280;15662;49.128;8.520;2023-07-29T04:02:04;99759.97;;;23.22;61.82
28428;BME280;15662;49.128;8.520;2023-07-29T04:04:32;99775.34;;;23.21;62.01
28428;BME280;15662;49.128;8.520;2023-07-29T04:07:00;99786.72;;;23.25;61.91
28428;BME280;15662;49.128;8.520;2023-07-29T04:09:28;99792.72;;;23.28;61.66
28428;BME280;15662;49.128;8.520;2023-07-29T04:11:56;99791.72;;;23.29;61.76
28428;BME280;15662;49.128;8.520;2023-07-29T04:14:24;99801.44;;;23.32;61.90
28428;BME280;15662;49.128;8.520;2023-07-29T04:16:51;99809.41;;;23.33;61.90
28428;BME280;15662;49.128;8.520;2023-07-29T04:19:19;99824.63;;;23.34;62.00
28428;BME280;15662;49.128;8.520;2023-07-29T04:21:47;99791.78;;;23.39;62.19
28428;BME280;15662;49.128;8.520;2023-07-29T04:24:15;99770.44;;;23.36;62.16
28428;BME280;15662;49.128;8.520;2023-07-29T04:26:43;99792.31;;;23.33;62.45
28428;BME280;15662;49.128;8.520;2023-07-29T04:29:12;99807.25;;;23.27;62.76
28428;BME280;15662;49.128;8.520;2023-07-29T04:31:39;99795.72;;;23.25;62.79
28428;BME280;15662;49.128;8.520;2023-07-29T04:34:08;99787.72;;;23.24;63.16
28428;BME280;15662;49.128;8.520;2023-07-29T04:36:36;99795.13;;;23.22;63.20
28428;BME280;15662;49.128;8.520;2023-07-29T04:39:04;99797.94;;;23.20;63.52
28428;BME280;15662;49.128;8.520;2023-07-29T04:41:33;99799.69;;;23.21;63.53
28428;BME280;15662;49.128;8.520;2023-07-29T04:44:00;99780.75;;;23.21;63.63
28428;BME280;15662;49.128;8.520;2023-07-29T04:46:28;99789.56;;;23.23;64.03
28428;BME280;15662;49.128;8.520;2023-07-29T04:48:56;99783.16;;;23.24;63.80
28428;BME280;15662;49.128;8.520;2023-07-29T04:51:24;99793.03;;;23.35;64.00
28428;BME280;15662;49.128;8.520;2023-07-29T04:53:52;99793.03;;;23.35;64.07
28428;BME280;15662;49.128;8.520;2023-07-29T04:56:20;99795.22;;;23.41;64.31
28428;BME280;15662;49.128;8.520;2023-07-29T04:58:47;99797.22;;;23.49;64.29
28428;BME280;15662;49.128;8.520;2023-07-29T05:01:15;99794.25;;;23.52;64.01
28428;BME280;15662;49.128;8.520;2023-07-29T05:03:43;99798.28;;;23.57;64.17
28428;BME280;15662;49.128;8.520;2023-07-29T05:06:12;99798.72;;;23.62;64.08
28428;BME280;15662;49.128;8.520;2023-07-29T05:08:40;99786.19;;;23.61;64.03
28428;BME280;15662;49.128;8.520;2023-07-29T05:11:08;99783.97;;;23.66;64.08
28428;BME280;15662;49.128;8.520;2023-07-29T05:13:36;99783.81;;;23.68;64.06
28428;BME280;15662;49.128;8.520;2023-07-29T05:16:05;99781.53;;;23.73;64.41
28428;BME280;15662;49.128;8.520;2023-07-29T05:18:33;99786.97;;;23.83;64.22
28428;BME280;15662;49.128;8.520;2023-07-29T05:21:01;99796.69;;;23.85;64.50
28428;BME280;15662;49.128;8.520;2023-07-29T05:23:29;99793.69;;;23.88;64.23
28428;BME280;15662;49.128;8.520;2023-07-29T05:25:57;99796.13;;;23.91;64.52
28428;BME280;15662;49.128;8.520;2023-07-29T05:28:25;99804.69;;;23.97;64.59
28428;BME280;15662;49.128;8.520;2023-07-29T05:30:53;99802.41;;;24.02;64.54
28428;BME280;15662;49.128;8.520;2023-07-29T05:33:20;99811.72;;;24.09;64.58
28428;BME280;15662;49.128;8.520;2023-07-29T05:35:49;99808.72;;;24.12;64.25
28428;BME280;15662;49.128;8.520;2023-07-29T05:38:16;99817.13;;;24.18;64.19
28428;BME280;15662;49.128;8.520;2023-07-29T05:40:44;99805.31;;;24.19;64.61
28428;BME280;15662;49.128;8.520;2023-07-29T05:43:12;99804.16;;;24.22;64.61
28428;BME280;15662;49.128;8.520;2023-07-29T05:45:40;99806.00;;;24.22;64.40
28428;BME280;15662;49.128;8.520;2023-07-29T05:48:08;99814.56;;;24.27;64.18
28428;BME280;15662;49.128;8.520;2023-07-29T05:50:36;99805.59;;;24.26;64.52
28428;BME280;15662;49.128;8.520;2023-07-29T05:53:04;99815.75;;;24.34;64.47
28428;BME280;15662;49.128;8.520;2023-07-29T05:55:32;99812.16;;;24.33;64.56
28428;BME280;15662;49.128;8.520;2023-07-29T05:58:00;99814.63;;;24.36;64.51
28428;BME280;15662;49.128;8.520;2023-07-29T06:00:27;99826.88;;;24.40;64.23
28428;BME280;15662;49.128;8.520;2023-07-29T06:02:55;99831.16;;;24.43;64.30
28428;BME280;15662;49.128;8.520;2023-07-29T06:05:26;99827.75;;;24.41;64.29
28428;BME280;15662;49.128;8.520;2023-07-29T06:07:54;99831.72;;;24.47;64.22
28428;BME280;15662;49.128;8.520;2023-07-29T06:10:22;99828.03;;;24.48;64.27
28428;BME280;15662;49.128;8.520;2023-07-29T06:12:50;99830.31;;;24.52;63.83
28428;BME280;15662;49.128;8.520;2023-07-29T06:15:17;99834.44;;;24.56;64.19
28428;BME280;15662;49.128;8.520;2023-07-29T06:17:49;99835.03;;;24.60;64.28
28428;BME280;15662;49.128;8.520;2023-07-29T06:20:17;99832.91;;;24.63;63.86
28428;BME280;15662;49.128;8.520;2023-07-29T06:22:45;99841.56;;;24.67;64.14
28428;BME280;15662;49.128;8.520;2023-07-29T06:25:13;99840.28;;;24.71;64.20
28428;BME280;15662;49.128;8.520;2023-07-29T06:27:41;99844.72;;;24.72;63.88
28428;BME280;15662;49.128;8.520;2023-07-29T06:30:09;99851.41;;;24.78;63.89
28428;BME280;15662;49.128;8.520;2023-07-29T06:32:36;99838.88;;;24.77;63.50
28428;BME280;15662;49.128;8.520;2023-07-29T06:35:05;99842.31;;;24.79;64.00
28428;BME280;15662;49.128;8.520;2023-07-29T06:37:33;99845.13;;;24.77;63.65
28428;BME280;15662;49.128;8.520;2023-07-29T06:40:01;99858.16;;;24.83;63.74
28428;BME280;15662;49.128;8.520;2023-07-29T06:42:29;99850.72;;;24.85;63.92
28428;BME280;15662;49.128;8.520;2023-07-29T06:44:57;99839.59;;;24.88;64.19
28428;BME280;15662;49.128;8.520;2023-07-29T06:47:25;99851.56;;;24.95;64.21
28428;BME280;15662;49.128;8.520;2023-07-29T06:49:54;99855.53;;;25.01;64.21
28428;BME280;15662;49.128;8.520;2023-07-29T06:52:23;99860.84;;;25.03;64.31
28428;BME280;15662;49.128;8.520;2023-07-29T06:54:51;99865.72;;;25.09;64.35
28428;BME280;15662;49.128;8.520;2023-07-29T06:57:19;99868.13;;;25.12;63.80
28428;BME280;15662;49.128;8.520;2023-07-29T06:59:46;99858.00;;;25.14;63.92
28428;BME280;15662;49.128;8.520;2023-07-29T07:02:15;99854.97;;;25.17;63.73
28428;BME280;15662;49.128;8.520;2023-07-29T07:04:42;99844.13;;;25.17;63.80
28428;BME280;15662;49.128;8.520;2023-07-29T07:07:10;99849.69;;;25.25;63.75
28428;BME280;15662;49.128;8.520;2023-07-29T07:09:38;99838.41;;;25.20;63.63
28428;BME280;15662;49.128;8.520;2023-07-29T07:12:06;99849.41;;;25.28;63.60
28428;BME280;15662;49.128;8.520;2023-07-29T07:14:34;99844.84;;;25.29;63.90
28428;BME280;15662;49.128;8.520;2023-07-29T07:17:02;99849.25;;;25.30;63.88
28428;BME280;15662;49.128;8.520;2023-07-29T07:19:30;99856.94;;;25.34;63.58
28428;BME280;15662;49.128;8.520;2023-07-29T07:21:58;99855.66;;;25.38;63.69
28428;BME280;15662;49.128;8.520;2023-07-29T07:24:26;99857.38;;;25.39;63.65
28428;BME280;15662;49.128;8.520;2023-07-29T07:26:53;99856.66;;;25.47;63.69
28428;BME280;15662;49.128;8.520;2023-07-29T07:29:21;99859.19;;;25.48;63.55
28428;BME280;15662;49.128;8.520;2023-07-29T07:31:53;99863.19;;;25.54;63.38
28428;BME280;15662;49.128;8.520;2023-07-29T07:34:22;99856.72;;;25.55;63.43
28428;BME280;15662;49.128;8.520;2023-07-29T07:36:50;99857.16;;;25.60;63.46
28428;BME280;15662;49.128;8.520;2023-07-29T07:39:18;99870.84;;;25.68;63.42
28428;BME280;15662;49.128;8.520;2023-07-29T07:41:45;99860.25;;;25.75;63.25
28428;BME280;15662;49.128;8.520;2023-07-29T07:44:13;99860.84;;;25.79;63.16
28428;BME280;15662;49.128;8.520;2023-07-29T07:46:43;99868.53;;;25.83;62.98
28428;BME280;15662;49.128;8.520;2023-07-29T07:49:11;99861.06;;;25.85;63.00
28428;BME280;15662;49.128;8.520;2023-07-29T07:51:40;99863.78;;;25.85;62.62
28428;BME280;15662;49.128;8.520;2023-07-29T07:54:08;99859.53;;;25.83;62.59
28428;BME280;15662;49.128;8.520;2023-07-29T07:56:35;99864.97;;;25.83;62.50
28428;BME280;15662;49.128;8.520;2023-07-29T07:59:04;99867.50;;;25.84;62.43
28428;BME280;15662;49.128;8.520;2023-07-29T08:01:36;99870.38;;;25.83;61.96
28428;BME280;15662;49.128;8.520;2023-07-29T08:04:04;99876.28;;;25.78;62.04
28428;BME280;15662;49.128;8.520;2023-07-29T08:06:32;99879.13;;;25.77;62.18
28428;BME280;15662;49.128;8.520;2023-07-29T08:09:01;99880.00;;;25.77;62.14
28428;BME280;15662;49.128;8.520;2023-07-29T08:11:29;99883.41;;;25.79;62.23
28428;BME280;15662;49.128;8.520;2023-07-29T08:13:58;99885.84;;;25.82;62.26
28428;BME280;15662;49.128;8.520;2023-07-29T08:16:26;99894.66;;;25.84;62.20
28428;BME280;15662;49.128;8.520;2023-07-29T08:18:54;99900.94;;;25.85;62.32
28428;BME280;15662;49.128;8.520;2023-07-29T08:21:21;99897.78;;;25.89;62.29
28428;BME280;15662;49.128;8.520;2023-07-29T08:23:50;99903.63;;;25.94;62.35
28428;BME280;15662;49.128;8.520;2023-07-29T08:26:18;99898.91;;;25.96;62.04
28428;BME280;15662;49.128;8.520;2023-07-29T08:28:46;99905.72;;;26.01;62.13
28428;BME280;15662;49.128;8.520;2023-07-29T08:31:14;99893.03;;;26.01;62.13
28428;BME280;15662;49.128;8.520;2023-07-29T08:33:42;99911.88;;;26.03;61.83
28428;BME280;15662;49.128;8.520;2023-07-29T08:36:09;99894.03;;;26.00;61.73
28428;BME280;15662;49.128;8.520;2023-07-29T08:38:37;99885.03;;;25.99;61.97
28428;BME280;15662;49.128;8.520;2023-07-29T08:46:40;99880.66;;;26.16;62.34
28428;BME280;15662;49.128;8.520;2023-07-29T08:49:09;99878.03;;;26.24;62.31
28428;BME280;15662;49.128;8.520;2023-07-29T08:51:39;99875.88;;;26.28;62.15
28428;BME280;15662;49.128;8.520;2023-07-29T08:54:10;99873.31;;;26.27;62.13
28428;BME280;15662;49.128;8.520;2023-07-29T08:56:41;99884.88;;;26.29;61.89
28428;BME280;15662;49.128;8.520;2023-07-29T08:59:10;99892.84;;;26.30;62.06
28428;BME280;15662;49.128;8.520;2023-07-29T09:01:41;99881.69;;;26.33;62.54
28428;BME280;15662;49.128;8.520;2023-07-29T09:04:09;99882.66;;;26.42;62.76
28428;BME280;15662;49.128;8.520;2023-07-29T09:06:39;99880.69;;;26.62;62.44
28428;BME280;15662;49.128;8.520;2023-07-29T09:09:09;99877.88;;;26.54;63.18
28428;BME280;15662;49.128;8.520;2023-07-29T09:11:36;99874.47;;;26.69;63.29
28428;BME280;15662;49.128;8.520;2023-07-29T09:14:04;99867.72;;;26.91;63.12
28428;BME280;15662;49.128;8.520;2023-07-29T09:16:32;99876.75;;;27.10;62.94
28428;BME280;15662;49.128;8.520;2023-07-29T09:19:03;99875.00;;;27.26;62.86
28428;BME280;15662;49.128;8.520;2023-07-29T09:21:32;99874.09;;;27.44;62.61
28428;BME280;15662;49.128;8.520;2023-07-29T09:24:03;99870.94;;;27.57;61.77
28428;BME280;15662;49.128;8.520;2023-07-29T09:26:32;99872.69;;;27.66;61.74
28428;BME280;15662;49.128;8.520;2023-07-29T09:29:00;99869.72;;;27.77;61.45
28428;BME280;15662;49.128;8.520;2023-07-29T09:31:29;99876.25;;;27.84;61.01
28428;BME280;15662;49.128;8.520;2023-07-29T09:33:58;99880.84;;;27.92;60.61
28428;BME280;15662;49.128;8.520;2023-07-29T09:36:26;99882.78;;;27.99;60.45
28428;BME280;15662;49.128;8.520;2023-07-29T09:38:56;99879.56;;;28.04;60.13
28428;BME280;15662;49.128;8.520;2023-07-29T09:41:25;99863.91;;;28.06;59.77
28428;BME280;15662;49.128;8.520;2023-07-29T09:44:03;99871.41;;;28.12;59.06
28428;BME280;15662;49.128;8.520;2023-07-29T09:46:35;99880.59;;;28.11;59.37
28428;BME280;15662;49.128;8.520;2023-07-29T09:49:06;99876.72;;;28.14;58.60
28428;BME280;15662;49.128;8.520;2023-07-29T09:51:38;99876.72;;;28.14;58.62
28428;BME280;15662;49.128;8.520;2023-07-29T09:54:07;99883.53;;;28.18;58.84
28428;BME280;15662;49.128;8.520;2023-07-29T09:56:41;99868.19;;;28.17;58.14
28428;BME280;15662;49.128;8.520;2023-07-29T09:59:10;99882.88;;;28.24;58.20
28428;BME280;15662;49.128;8.520;2023-07-29T10:01:40;99874.22;;;28.28;57.89
28428;BME280;15662;49.128;8.520;2023-07-29T10:04:09;99888.03;;;28.35;57.78
28428;BME280;15662;49.128;8.520;2023-07-29T10:06:41;99888.75;;;28.45;57.24
28428;BME280;15662;49.128;8.520;2023-07-29T10:09:11;99887.22;;;28.51;57.64
28428;BME280;15662;49.128;8.520;2023-07-29T10:11:42;99898.00;;;28.61;56.91
28428;BME280;15662;49.128;8.520;2023-07-29T10:14:10;99881.66;;;28.69;56.45
28428;BME280;15662;49.128;8.520;2023-07-29T10:16:40;99884.06;;;28.80;56.38
28428;BME280;15662;49.128;8.520;2023-07-29T10:19:10;99885.09;;;28.87;56.50
28428;BME280;15662;49.128;8.520;2023-07-29T10:21:39;99894.00;;;28.97;55.87
28428;BME280;15662;49.128;8.520;2023-07-29T10:24:16;99892.47;;;29.03;55.55
28428;BME280;15662;49.128;8.520;2023-07-29T10:26:47;99897.06;;;29.02;55.27
28428;BME280;15662;49.128;8.520;2023-07-29T10:29:19;99894.16;;;28.96;54.58
28428;BME280;15662;49.128;8.520;2023-07-29T10:31:53;99896.69;;;28.89;54.33
28428;BME280;15662;49.128;8.520;2023-07-29T10:34:22;99888.66;;;28.79;54.51
28428;BME280;15662;49.128;8.520;2023-07-29T10:36:51;99888.13;;;28.76;54.43
28428;BME280;15662;49.128;8.520;2023-07-29T10:39:20;99884.38;;;28.69;54.73
28428;BME280;15662;49.128;8.520;2023-07-29T10:41:59;99874.00;;;28.72;54.81
28428;BME280;15662;49.128;8.520;2023-07-29T10:47:32;99861.06;;;28.83;54.38
28428;BME280;15662;49.128;8.520;2023-07-29T10:50:00;99859.69;;;28.78;54.80
28428;BME280;15662;49.128;8.520;2023-07-29T10:55:03;99867.53;;;29.06;54.33
28428;BME280;15662;49.128;8.520;2023-07-29T10:57:39;99864.50;;;29.17;54.04
28428;BME280;15662;49.128;8.520;2023-07-29T11:00:09;99860.72;;;29.18;54.11
28428;BME280;15662;49.128;8.520;2023-07-29T11:02:38;99873.69;;;29.24;53.78
28428;BME280;15662;49.128;8.520;2023-07-29T11:05:15;99869.25;;;29.23;53.04
28428;BME280;15662;49.128;8.520;2023-07-29T11:07:48;99863.47;;;29.26;52.59
28428;BME280;15662;49.128;8.520;2023-07-29T11:10:16;99872.84;;;29.32;52.44
28428;BME280;15662;49.128;8.520;2023-07-29T11:12:51;99862.91;;;29.39;51.54
28428;BME280;15662;49.128;8.520;2023-07-29T11:15:28;99875.88;;;29.45;51.30
28428;BME280;15662;49.128;8.520;2023-07-29T11:18:01;99883.53;;;29.50;51.17
28428;BME280;15662;49.128;8.520;2023-07-29T11:20:32;99878.28;;;29.57;50.87
28428;BME280;15662;49.128;8.520;2023-07-29T11:23:02;99892.09;;;29.63;50.21
28428;BME280;15662;49.128;8.520;2023-07-29T11:25:31;99887.66;;;29.62;50.10
28428;BME280;15662;49.128;8.520;2023-07-29T11:28:01;99882.00;;;29.64;49.81
28428;BME280;15662;49.128;8.520;2023-07-29T11:30:39;99890.91;;;29.66;49.91
28428;BME280;15662;49.128;8.520;2023-07-29T11:33:07;99904.22;;;29.61;50.72
28428;BME280;15662;49.128;8.520;2023-07-29T11:35:35;99896.19;;;29.51;50.88
28428;BME280;15662;49.128;8.520;2023-07-29T11:38:03;99891.75;;;29.34;50.53
28428;BME280;15662;49.128;8.520;2023-07-29T11:40:31;99893.31;;;29.12;51.38
28428;BME280;15662;49.128;8.520;2023-07-29T11:42:58;99893.63;;;28.92;51.42
28428;BME280;15662;49.128;8.520;2023-07-29T11:45:26;99886.78;;;28.80;50.98
28428;BME280;15662;49.128;8.520;2023-07-29T11:48:13;99885.56;;;28.66;51.52
28428;BME280;15662;49.128;8.520;2023-07-29T11:50:41;99886.91;;;28.54;51.79
28428;BME280;15662;49.128;8.520;2023-07-29T11:53:09;99889.06;;;28.42;51.93
28428;BME280;15662;49.128;8.520;2023-07-29T11:55:37;99878.16;;;28.34;52.21
28428;BME280;15662;49.128;8.520;2023-07-29T11:58:05;99874.84;;;28.22;52.95
28428;BME280;15662;49.128;8.520;2023-07-29T12:00:33;99872.47;;;28.19;53.04
28428;BME280;15662;49.128;8.520;2023-07-29T12:03:01;99873.63;;;28.17;53.07
28428;BME280;15662;49.128;8.520;2023-07-29T12:05:30;99868.38;;;28.15;53.29
28428;BME280;15662;49.128;8.520;2023-07-29T12:07:58;99855.91;;;28.13;53.50
28428;BME280;15662;49.128;8.520;2023-07-29T12:10:26;99859.50;;;28.13;54.15
28428;BME280;15662;49.128;8.520;2023-07-29T12:12:54;99863.09;;;28.14;54.30
28428;BME280;15662;49.128;8.520;2023-07-29T12:15:29;99847.59;;;28.14;54.44
28428;BME280;15662;49.128;8.520;2023-07-29T12:17:59;99856.09;;;28.11;54.55
28428;BME280;15662;49.128;8.520;2023-07-29T12:20:29;99858.13;;;28.09;55.21
28428;BME280;15662;49.128;8.520;2023-07-29T12:22:59;99854.56;;;28.17;55.51
28428;BME280;15662;49.128;8.520;2023-07-29T12:25:30;99853.03;;;28.14;55.55
28428;BME280;15662;49.128;8.520;2023-07-29T12:28:07;99856.66;;;28.23;55.83
28428;BME280;15662;49.128;8.520;2023-07-29T12:30:42;99857.31;;;28.25;55.57
28428;BME280;15662;49.128;8.520;2023-07-29T12:33:10;99860.06;;;28.25;55.82
28428;BME280;15662;49.128;8.520;2023-07-29T12:35:38;99850.53;;;28.29;55.61
28428;BME280;15662;49.128;8.520;2023-07-29T12:38:06;99854.50;;;28.35;55.52
28428;BME280;15662;49.128;8.520;2023-07-29T12:40:38;99856.91;;;28.38;55.47
28428;BME280;15662;49.128;8.520;2023-07-29T12:43:06;99841.88;;;28.34;55.01
28428;BME280;15662;49.128;8.520;2023-07-29T12:45:37;99850.59;;;28.45;55.44
28428;BME280;15662;49.128;8.520;2023-07-29T12:48:08;99847.69;;;28.47;54.94
28428;BME280;15662;49.128;8.520;2023-07-29T12:50:37;99848.91;;;28.52;54.70
28428;BME280;15662;49.128;8.520;2023-07-29T12:53:08;99852.66;;;28.60;54.85
28428;BME280;15662;49.128;8.520;2023-07-29T12:55:38;99850.28;;;28.65;54.84
28428;BME280;15662;49.128;8.520;2023-07-29T12:58:06;99845.19;;;28.70;54.76
28428;BME280;15662;49.128;8.520;2023-07-29T13:00:33;99842.13;;;28.73;54.28
28428;BME280;15662;49.128;8.520;2023-07-29T13:03:01;99838.91;;;28.77;54.24
28428;BME280;15662;49.128;8.520;2023-07-29T13:05:33;99844.50;;;28.84;54.27
28428;BME280;15662;49.128;8.520;2023-07-29T13:08:01;99837.00;;;28.86;53.97
28428;BME280;15662;49.128;8.520;2023-07-29T13:10:28;99841.47;;;28.95;53.46
28428;BME280;15662;49.128;8.520;2023-07-29T13:12:56;99846.75;;;29.05;53.34
28428;BME280;15662;49.128;8.520;2023-07-29T13:15:24;99843.84;;;29.15;52.80
28428;BME280;15662;49.128;8.520;2023-07-29T13:17:52;99846.06;;;29.27;52.48
28428;BME280;15662;49.128;8.520;2023-07-29T13:20:20;99833.41;;;29.35;52.16
28428;BME280;15662;49.128;8.520;2023-07-29T13:22:47;99824.00;;;29.45;51.62
28428;BME280;15662;49.128;8.520;2023-07-29T13:25:15;99833.91;;;29.54;51.31
28428;BME280;15662;49.128;8.520;2023-07-29T13:27:43;99826.03;;;29.60;51.47
28428;BME280;15662;49.128;8.520;2023-07-29T13:30:11;99827.53;;;29.70;51.03